sensor_id;sensor_type;location;lat;lon;timestamp;P1;durP1;ratioP1;P2;durP2;ratioP2
12059;SDS011;6091;51.432;6.880;2022-07-29T00:02:26;1.90;;;1.00;;
12059;SDS011;6091;51.432;6.880;2022-07-29T00:04:54;0.95;;;0.93;;
12059;SDS011;6091;51.432;6.880;2022-07-29T00:07:21;0.90;;;0.90;;
12059;SDS011;6091;51.432;6.880;2022-07-29T00:09:48;0.85;;;0.85;;
12059;SDS011;6091;51.432;6.880;2022-07-29T00:12:18;1.02;;;0.93;;
12059;SDS011;6091;51.432;6.880;2022-07-29T00:14:55;0.80;;;0.80;;
12059;SDS011;6091;51.432;6.880;2022-07-29T00:17:23;1.17;;;0.90;;
12059;SDS011;6091;51.432;6.880;2022-07-29T00:19:51;1.25;;;0.80;;
12059;SDS011;6091;51.432;6.880;2022-07-29T00:22:19;0.85;;;0.85;;
12059;SDS011;6091;51.432;6.880;2022-07-29T00:24:47;1.25;;;0.88;;
12059;SDS011;6091;51.432;6.880;2022-07-29T00:27:15;1.15;;;0.90;;
12059;SDS011;6091;51.432;6.880;2022-07-29T00:29:43;1.08;;;0.98;;
12059;SDS011;6091;51.432;6.880;2022-07-29T00:32:10;0.95;;;0.90;;
12059;SDS011;6091;51.432;6.880;2022-07-29T00:34:38;0.93;;;0.90;;
12059;SDS011;6091;51.432;6.880;2022-07-29T00:37:24;1.23;;;0.95;;
12059;SDS011;6091;51.432;6.880;2022-07-29T00:39:51;1.60;;;0.90;;
12059;SDS011;6091;51.432;6.880;2022-07-29T00:42:18;1.00;;;0.90;;
12059;SDS011;6091;51.432;6.880;2022-07-29T00:44:45;1.92;;;1.10;;
12059;SDS011;6091;51.432;6.880;2022-07-29T00:47:12;1.30;;;1.10;;
12059;SDS011;6091;51.432;6.880;2022-07-29T00:49:39;1.00;;;0.90;;
12059;SDS011;6091;51.432;6.880;2022-07-29T00:52:08;0.98;;;0.90;;
12059;SDS011;6091;51.432;6.880;2022-07-29T00:54:38;0.73;;;0.73;;
12059;SDS011;6091;51.432;6.880;2022-07-29T00:57:10;0.93;;;0.85;;
12059;SDS011;6091;51.432;6.880;2022-07-29T00:59:38;1.42;;;0.98;;
12059;SDS011;6091;51.432;6.880;2022-07-29T01:02:07;0.90;;;0.90;;
12059;SDS011;6091;51.432;6.880;2022-07-29T01:04:34;1.23;;;0.90;;
12059;SDS011;6091;51.432;6.880;2022-07-29T01:07:02;1.23;;;1.00;;
12059;SDS011;6091;51.432;6.880;2022-07-29T01:09:33;1.23;;;0.93;;
12059;SDS011;6091;51.432;6.880;2022-07-29T01:12:17;0.80;;;0.80;;
12059;SDS011;6091;51.432;6.880;2022-07-29T01:14:49;0.90;;;0.90;;
12059;SDS011;6091;51.432;6.880;2022-07-29T01:17:22;1.40;;;1.08;;
12059;SDS011;6091;51.432;6.880;2022-07-29T01:20:07;0.80;;;0.80;;
12059;SDS011;6091;51.432;6.880;2022-07-29T01:32:07;0.70;;;0.70;;
12059;SDS011;6091;51.432;6.880;2022-07-29T01:40:15;0.90;;;0.90;;
12059;SDS011;6091;51.432;6.880;2022-07-29T01:42:55;0.90;;;0.90;;
12059;SDS011;6091;51.432;6.880;2022-07-29T01:45:31;0.85;;;0.85;;
12059;SDS011;6091;51.432;6.880;2022-07-29T01:48:15;1.05;;;0.90;;
12059;SDS011;6091;51.432;6.880;2022-07-29T01:50:58;1.17;;;0.85;;
12059;SDS011;6091;51.432;6.880;2022-07-29T01:54:06;0.88;;;0.88;;
12059;SDS011;6091;51.432;6.880;2022-07-29T01:56:39;1.38;;;0.98;;
12059;SDS011;6091;51.432;6.880;2022-07-29T01:59:09;1.50;;;0.90;;
12059;SDS011;6091;51.432;6.880;2022-07-29T02:01:38;2.55;;;1.02;;
12059;SDS011;6091;51.432;6.880;2022-07-29T02:04:09;0.88;;;0.80;;
12059;SDS011;6091;51.432;6.880;2022-07-29T02:06:55;1.50;;;0.90;;
12059;SDS011;6091;51.432;6.880;2022-07-29T02:09:29;1.10;;;1.00;;
12059;SDS011;6091;51.432;6.880;2022-07-29T02:11:59;1.25;;;1.00;;
12059;SDS011;6091;51.432;6.880;2022-07-29T02:14:40;0.80;;;0.75;;
12059;SDS011;6091;51.432;6.880;2022-07-29T02:17:13;1.08;;;0.90;;
12059;SDS011;6091;51.432;6.880;2022-07-29T02:19:49;1.35;;;0.95;;
12059;SDS011;6091;51.432;6.880;2022-07-29T02:22:21;1.00;;;0.90;;
12059;SDS011;6091;51.432;6.880;2022-07-29T02:24:50;0.82;;;0.80;;
12059;SDS011;6091;51.432;6.880;2022-07-29T02:27:19;0.70;;;0.70;;
12059;SDS011;6091;51.432;6.880;2022-07-29T02:29:49;0.82;;;0.80;;
12059;SDS011;6091;51.432;6.880;2022-07-29T02:32:19;1.00;;;0.73;;
12059;SDS011;6091;51.432;6.880;2022-07-29T02:34:51;0.80;;;0.70;;
12059;SDS011;6091;51.432;6.880;2022-07-29T02:37:19;1.38;;;0.93;;
12059;SDS011;6091;51.432;6.880;2022-07-29T02:39:47;1.30;;;0.90;;
12059;SDS011;6091;51.432;6.880;2022-07-29T02:42:17;3.10;;;0.77;;
12059;SDS011;6091;51.432;6.880;2022-07-29T02:44:48;1.27;;;1.13;;
12059;SDS011;6091;51.432;6.880;2022-07-29T02:47:18;1.25;;;0.82;;
12059;SDS011;6091;51.432;6.880;2022-07-29T02:50:50;1.25;;;1.00;;
12059;SDS011;6091;51.432;6.880;2022-07-29T02:53:07;1.52;;;1.30;;
12059;SDS011;6091;51.432;6.880;2022-07-29T02:55:48;1.77;;;1.10;;
12059;SDS011;6091;51.432;6.880;2022-07-29T02:58:41;1.20;;;1.10;;
12059;SDS011;6091;51.432;6.880;2022-07-29T03:01:16;1.45;;;1.00;;
12059;SDS011;6091;51.432;6.880;2022-07-29T03:03:56;1.17;;;1.08;;
12059;SDS011;6091;51.432;6.880;2022-07-29T03:06:28;2.20;;;1.33;;
12059;SDS011;6091;51.432;6.880;2022-07-29T03:09:04;1.08;;;0.80;;
12059;SDS011;6091;51.432;6.880;2022-07-29T03:11:39;2.38;;;1.30;;
12059;SDS011;6091;51.432;6.880;2022-07-29T03:14:16;0.80;;;0.80;;
12059;SDS011;6091;51.432;6.880;2022-07-29T03:16:46;1.02;;;0.93;;
12059;SDS011;6091;51.432;6.880;2022-07-29T03:19:14;1.63;;;1.20;;
12059;SDS011;6091;51.432;6.880;2022-07-29T03:21:42;1.27;;;1.10;;
12059;SDS011;6091;51.432;6.880;2022-07-29T03:24:09;1.90;;;1.00;;
12059;SDS011;6091;51.432;6.880;2022-07-29T03:26:36;1.45;;;1.00;;
12059;SDS011;6091;51.432;6.880;2022-07-29T03:29:04;1.17;;;0.95;;
12059;SDS011;6091;51.432;6.880;2022-07-29T03:31:31;1.15;;;1.00;;
12059;SDS011;6091;51.432;6.880;2022-07-29T03:33:58;1.38;;;0.95;;
12059;SDS011;6091;51.432;6.880;2022-07-29T03:36:25;1.75;;;1.10;;
12059;SDS011;6091;51.432;6.880;2022-07-29T03:38:52;1.20;;;1.10;;
12059;SDS011;6091;51.432;6.880;2022-07-29T03:41:20;1.17;;;0.90;;
12059;SDS011;6091;51.432;6.880;2022-07-29T03:43:49;1.60;;;1.10;;
12059;SDS011;6091;51.432;6.880;2022-07-29T03:46:20;1.30;;;1.05;;
12059;SDS011;6091;51.432;6.880;2022-07-29T03:48:52;1.27;;;1.02;;
12059;SDS011;6091;51.432;6.880;2022-07-29T03:51:26;1.15;;;1.05;;
12059;SDS011;6091;51.432;6.880;2022-07-29T03:54:00;1.20;;;1.05;;
12059;SDS011;6091;51.432;6.880;2022-07-29T03:56:37;1.80;;;1.17;;
12059;SDS011;6091;51.432;6.880;2022-07-29T03:59:08;2.50;;;1.00;;
12059;SDS011;6091;51.432;6.880;2022-07-29T04:01:37;2.50;;;1.10;;
12059;SDS011;6091;51.432;6.880;2022-07-29T04:04:06;1.10;;;1.00;;
12059;SDS011;6091;51.432;6.880;2022-07-29T04:06:43;1.20;;;0.88;;
12059;SDS011;6091;51.432;6.880;2022-07-29T04:09:13;1.10;;;1.00;;
12059;SDS011;6091;51.432;6.880;2022-07-29T04:11:40;1.52;;;1.00;;
12059;SDS011;6091;51.432;6.880;2022-07-29T04:14:28;1.33;;;1.13;;
12059;SDS011;6091;51.432;6.880;2022-07-29T04:16:57;1.30;;;1.00;;
12059;SDS011;6091;51.432;6.880;2022-07-29T04:19:24;1.15;;;0.90;;
12059;SDS011;6091;51.432;6.880;2022-07-29T04:21:52;2.70;;;1.08;;
12059;SDS011;6091;51.432;6.880;2022-07-29T04:24:19;1.20;;;1.10;;
12059;SDS011;6091;51.432;6.880;2022-07-29T04:26:46;1.20;;;1.05;;
12059;SDS011;6091;51.432;6.880;2022-07-29T04:29:14;0.98;;;0.90;;
12059;SDS011;6091;51.432;6.880;2022-07-29T04:31:41;0.98;;;0.85;;
12059;SDS011;6091;51.432;6.880;2022-07-29T04:34:10;1.00;;;0.90;;
12059;SDS011;6091;51.432;6.880;2022-07-29T04:36:38;1.48;;;1.17;;
12059;SDS011;6091;51.432;6.880;2022-07-29T04:39:05;1.58;;;0.98;;
12059;SDS011;6091;51.432;6.880;2022-07-29T04:41:32;1.15;;;0.80;;
12059;SDS011;6091;51.432;6.880;2022-07-29T04:44:00;1.73;;;1.00;;
12059;SDS011;6091;51.432;6.880;2022-07-29T04:46:32;1.73;;;1.20;;
12059;SDS011;6091;51.432;6.880;2022-07-29T04:49:00;1.38;;;1.25;;
12059;SDS011;6091;51.432;6.880;2022-07-29T04:51:28;1.00;;;0.90;;
12059;SDS011;6091;51.432;6.880;2022-07-29T04:53:55;1.10;;;1.00;;
12059;SDS011;6091;51.432;6.880;2022-07-29T04:56:22;0.82;;;0.82;;
12059;SDS011;6091;51.432;6.880;2022-07-29T04:58:49;1.13;;;0.90;;
12059;SDS011;6091;51.432;6.880;2022-07-29T05:01:16;1.10;;;1.00;;
12059;SDS011;6091;51.432;6.880;2022-07-29T05:03:44;0.88;;;0.88;;
12059;SDS011;6091;51.432;6.880;2022-07-29T05:06:11;0.80;;;0.80;;
12059;SDS011;6091;51.432;6.880;2022-07-29T05:08:38;2.00;;;1.00;;
12059;SDS011;6091;51.432;6.880;2022-07-29T05:11:07;1.08;;;0.80;;
12059;SDS011;6091;51.432;6.880;2022-07-29T05:13:37;1.20;;;0.82;;
12059;SDS011;6091;51.432;6.880;2022-07-29T05:16:12;1.75;;;0.88;;
12059;SDS011;6091;51.432;6.880;2022-07-29T05:18:40;1.55;;;0.80;;
12059;SDS011;6091;51.432;6.880;2022-07-29T05:21:08;1.40;;;0.88;;
12059;SDS011;6091;51.432;6.880;2022-07-29T05:23:35;0.77;;;0.77;;
12059;SDS011;6091;51.432;6.880;2022-07-29T05:26:02;0.80;;;0.80;;
12059;SDS011;6091;51.432;6.880;2022-07-29T05:28:32;1.00;;;0.90;;
12059;SDS011;6091;51.432;6.880;2022-07-29T05:31:01;1.13;;;1.00;;
12059;SDS011;6091;51.432;6.880;2022-07-29T05:33:28;1.27;;;1.00;;
12059;SDS011;6091;51.432;6.880;2022-07-29T05:36:02;0.80;;;0.80;;
12059;SDS011;6091;51.432;6.880;2022-07-29T05:38:33;1.35;;;0.80;;
12059;SDS011;6091;51.432;6.880;2022-07-29T05:41:01;0.93;;;0.85;;
12059;SDS011;6091;51.432;6.880;2022-07-29T05:43:32;2.13;;;1.00;;
12059;SDS011;6091;51.432;6.880;2022-07-29T05:45:59;0.88;;;0.88;;
12059;SDS011;6091;51.432;6.880;2022-07-29T05:48:26;0.90;;;0.90;;
12059;SDS011;6091;51.432;6.880;2022-07-29T05:50:54;1.13;;;0.93;;
12059;SDS011;6091;51.432;6.880;2022-07-29T05:53:21;1.17;;;1.00;;
12059;SDS011;6091;51.432;6.880;2022-07-29T05:55:48;1.27;;;0.90;;
12059;SDS011;6091;51.432;6.880;2022-07-29T05:58:16;1.73;;;1.10;;
12059;SDS011;6091;51.432;6.880;2022-07-29T06:00:43;1.10;;;0.90;;
12059;SDS011;6091;51.432;6.880;2022-07-29T06:03:10;1.20;;;1.10;;
12059;SDS011;6091;51.432;6.880;2022-07-29T06:05:37;2.67;;;1.10;;
12059;SDS011;6091;51.432;6.880;2022-07-29T06:08:04;2.63;;;1.40;;
12059;SDS011;6091;51.432;6.880;2022-07-29T06:10:36;1.80;;;1.20;;
12059;SDS011;6091;51.432;6.880;2022-07-29T06:13:04;1.20;;;1.02;;
12059;SDS011;6091;51.432;6.880;2022-07-29T06:15:31;2.63;;;1.33;;
12059;SDS011;6091;51.432;6.880;2022-07-29T06:17:59;2.85;;;1.13;;
12059;SDS011;6091;51.432;6.880;2022-07-29T06:20:28;2.65;;;1.23;;
12059;SDS011;6091;51.432;6.880;2022-07-29T06:22:57;1.52;;;1.40;;
12059;SDS011;6091;51.432;6.880;2022-07-29T06:25:25;3.55;;;1.13;;
12059;SDS011;6091;51.432;6.880;2022-07-29T06:27:55;1.85;;;1.17;;
12059;SDS011;6091;51.432;6.880;2022-07-29T06:30:23;2.00;;;1.17;;
12059;SDS011;6091;51.432;6.880;2022-07-29T06:32:50;4.03;;;1.50;;
12059;SDS011;6091;51.432;6.880;2022-07-29T06:35:17;3.00;;;1.20;;
12059;SDS011;6091;51.432;6.880;2022-07-29T06:38:04;3.55;;;1.27;;
12059;SDS011;6091;51.432;6.880;2022-07-29T06:40:51;3.65;;;1.20;;
12059;SDS011;6091;51.432;6.880;2022-07-29T06:43:48;3.75;;;1.50;;
12059;SDS011;6091;51.432;6.880;2022-07-29T06:46:20;2.95;;;1.30;;
12059;SDS011;6091;51.432;6.880;2022-07-29T06:48:48;3.58;;;1.17;;
12059;SDS011;6091;51.432;6.880;2022-07-29T06:51:17;1.65;;;1.20;;
12059;SDS011;6091;51.432;6.880;2022-07-29T06:53:48;1.42;;;1.30;;
12059;SDS011;6091;51.432;6.880;2022-07-29T06:56:27;2.88;;;1.80;;
12059;SDS011;6091;51.432;6.880;2022-07-29T06:59:05;4.18;;;1.60;;
12059;SDS011;6091;51.432;6.880;2022-07-29T07:01:38;5.60;;;1.70;;
12059;SDS011;6091;51.432;6.880;2022-07-29T07:04:09;2.03;;;1.83;;
12059;SDS011;6091;51.432;6.880;2022-07-29T07:06:37;4.53;;;1.67;;
12059;SDS011;6091;51.432;6.880;2022-07-29T07:09:04;4.03;;;1.63;;
12059;SDS011;6091;51.432;6.880;2022-07-29T07:11:32;2.63;;;1.90;;
12059;SDS011;6091;51.432;6.880;2022-07-29T07:13:59;2.78;;;1.77;;
12059;SDS011;6091;51.432;6.880;2022-07-29T07:16:39;2.45;;;1.80;;
12059;SDS011;6091;51.432;6.880;2022-07-29T07:19:06;2.92;;;1.67;;
12059;SDS011;6091;51.432;6.880;2022-07-29T07:21:33;2.58;;;1.83;;
12059;SDS011;6091;51.432;6.880;2022-07-29T07:24:01;4.18;;;2.22;;
12059;SDS011;6091;51.432;6.880;2022-07-29T07:26:28;4.53;;;1.98;;
12059;SDS011;6091;51.432;6.880;2022-07-29T07:28:55;3.40;;;2.25;;
12059;SDS011;6091;51.432;6.880;2022-07-29T07:31:23;2.83;;;2.10;;
12059;SDS011;6091;51.432;6.880;2022-07-29T07:33:50;2.75;;;1.90;;
12059;SDS011;6091;51.432;6.880;2022-07-29T07:36:18;4.00;;;2.00;;
12059;SDS011;6091;51.432;6.880;2022-07-29T07:38:45;2.97;;;2.13;;
12059;SDS011;6091;51.432;6.880;2022-07-29T07:41:12;4.95;;;2.00;;
12059;SDS011;6091;51.432;6.880;2022-07-29T07:43:39;3.20;;;2.05;;
12059;SDS011;6091;51.432;6.880;2022-07-29T07:46:06;3.25;;;2.10;;
12059;SDS011;6091;51.432;6.880;2022-07-29T07:48:34;2.90;;;2.08;;
12059;SDS011;6091;51.432;6.880;2022-07-29T07:51:02;2.78;;;2.28;;
12059;SDS011;6091;51.432;6.880;2022-07-29T07:53:29;4.60;;;1.98;;
12059;SDS011;6091;51.432;6.880;2022-07-29T07:55:57;3.75;;;1.85;;
12059;SDS011;6091;51.432;6.880;2022-07-29T07:58:40;4.80;;;2.10;;
12059;SDS011;6091;51.432;6.880;2022-07-29T08:01:08;5.50;;;2.28;;
12059;SDS011;6091;51.432;6.880;2022-07-29T08:03:36;2.88;;;1.90;;
12059;SDS011;6091;51.432;6.880;2022-07-29T08:06:03;2.10;;;1.90;;
12059;SDS011;6091;51.432;6.880;2022-07-29T08:08:31;2.03;;;1.83;;
12059;SDS011;6091;51.432;6.880;2022-07-29T08:10:58;3.42;;;1.83;;
12059;SDS011;6091;51.432;6.880;2022-07-29T08:13:34;2.80;;;2.00;;
12059;SDS011;6091;51.432;6.880;2022-07-29T08:16:01;4.63;;;2.08;;
12059;SDS011;6091;51.432;6.880;2022-07-29T08:18:36;9.68;;;2.58;;
12059;SDS011;6091;51.432;6.880;2022-07-29T08:21:05;5.93;;;2.80;;
12059;SDS011;6091;51.432;6.880;2022-07-29T08:23:32;5.50;;;2.83;;
12059;SDS011;6091;51.432;6.880;2022-07-29T08:26:16;4.50;;;2.35;;
12059;SDS011;6091;51.432;6.880;2022-07-29T08:28:44;4.40;;;2.45;;
12059;SDS011;6091;51.432;6.880;2022-07-29T08:31:15;5.88;;;2.70;;
12059;SDS011;6091;51.432;6.880;2022-07-29T08:33:43;6.63;;;2.85;;
12059;SDS011;6091;51.432;6.880;2022-07-29T08:36:10;5.93;;;2.92;;
12059;SDS011;6091;51.432;6.880;2022-07-29T08:38:39;5.75;;;2.78;;
12059;SDS011;6091;51.432;6.880;2022-07-29T08:41:06;6.07;;;3.17;;
12059;SDS011;6091;51.432;6.880;2022-07-29T08:43:33;7.03;;;3.08;;
12059;SDS011;6091;51.432;6.880;2022-07-29T08:46:03;9.43;;;3.42;;
12059;SDS011;6091;51.432;6.880;2022-07-29T08:48:31;5.30;;;2.95;;
12059;SDS011;6091;51.432;6.880;2022-07-29T08:50:59;5.75;;;2.97;;
12059;SDS011;6091;51.432;6.880;2022-07-29T08:53:29;5.47;;;2.80;;
12059;SDS011;6091;51.432;6.880;2022-07-29T08:55:58;5.25;;;2.65;;
12059;SDS011;6091;51.432;6.880;2022-07-29T08:58:26;7.05;;;3.25;;
12059;SDS011;6091;51.432;6.880;2022-07-29T09:01:02;8.85;;;3.25;;
12059;SDS011;6091;51.432;6.880;2022-07-29T09:03:38;6.72;;;3.10;;
12059;SDS011;6091;51.432;6.880;2022-07-29T09:06:07;6.60;;;2.58;;
12059;SDS011;6091;51.432;6.880;2022-07-29T09:08:35;7.30;;;2.78;;
12059;SDS011;6091;51.432;6.880;2022-07-29T09:11:02;6.38;;;2.53;;
12059;SDS011;6091;51.432;6.880;2022-07-29T09:13:30;4.55;;;2.70;;
12059;SDS011;6091;51.432;6.880;2022-07-29T09:15:58;4.00;;;2.50;;
12059;SDS011;6091;51.432;6.880;2022-07-29T09:18:38;9.40;;;2.85;;
12059;SDS011;6091;51.432;6.880;2022-07-29T09:21:08;3.70;;;2.50;;
12059;SDS011;6091;51.432;6.880;2022-07-29T09:24:01;4.32;;;2.58;;
12059;SDS011;6091;51.432;6.880;2022-07-29T09:26:48;3.97;;;2.40;;
12059;SDS011;6091;51.432;6.880;2022-07-29T09:29:16;3.75;;;2.55;;
12059;SDS011;6091;51.432;6.880;2022-07-29T09:31:52;4.85;;;2.40;;
12059;SDS011;6091;51.432;6.880;2022-07-29T09:34:21;7.43;;;2.72;;
12059;SDS011;6091;51.432;6.880;2022-07-29T09:36:58;3.40;;;2.35;;
12059;SDS011;6091;51.432;6.880;2022-07-29T09:39:27;4.22;;;2.55;;
12059;SDS011;6091;51.432;6.880;2022-07-29T09:41:56;3.42;;;2.83;;
12059;SDS011;6091;51.432;6.880;2022-07-29T09:44:26;5.07;;;2.33;;
12059;SDS011;6091;51.432;6.880;2022-07-29T09:47:12;2.65;;;2.40;;
12059;SDS011;6091;51.432;6.880;2022-07-29T09:49:58;3.53;;;2.13;;
12059;SDS011;6091;51.432;6.880;2022-07-29T09:52:26;4.60;;;2.10;;
12059;SDS011;6091;51.432;6.880;2022-07-29T09:55:08;4.53;;;2.13;;
12059;SDS011;6091;51.432;6.880;2022-07-29T09:57:43;6.40;;;2.50;;
12059;SDS011;6091;51.432;6.880;2022-07-29T10:02:44;6.95;;;2.83;;
12059;SDS011;6091;51.432;6.880;2022-07-29T10:05:20;5.03;;;2.53;;
12059;SDS011;6091;51.432;6.880;2022-07-29T10:07:55;3.20;;;2.47;;
12059;SDS011;6091;51.432;6.880;2022-07-29T10:10:24;8.73;;;2.50;;
12059;SDS011;6091;51.432;6.880;2022-07-29T10:13:01;4.40;;;2.03;;
12059;SDS011;6091;51.432;6.880;2022-07-29T10:15:43;5.18;;;2.22;;
12059;SDS011;6091;51.432;6.880;2022-07-29T10:18:13;6.65;;;2.25;;
12059;SDS011;6091;51.432;6.880;2022-07-29T10:20:43;5.35;;;2.53;;
12059;SDS011;6091;51.432;6.880;2022-07-29T10:23:11;4.90;;;2.42;;
12059;SDS011;6091;51.432;6.880;2022-07-29T10:25:38;3.17;;;2.10;;
12059;SDS011;6091;51.432;6.880;2022-07-29T10:28:11;3.13;;;2.30;;
12059;SDS011;6091;51.432;6.880;2022-07-29T10:30:41;3.20;;;2.35;;
12059;SDS011;6091;51.432;6.880;2022-07-29T10:44:42;4.57;;;2.45;;
12059;SDS011;6091;51.432;6.880;2022-07-29T10:47:23;7.13;;;2.60;;
12059;SDS011;6091;51.432;6.880;2022-07-29T10:49:56;3.30;;;2.22;;
12059;SDS011;6091;51.432;6.880;2022-07-29T10:55:30;2.28;;;1.88;;
12059;SDS011;6091;51.432;6.880;2022-07-29T10:58:13;2.85;;;2.08;;
12059;SDS011;6091;51.432;6.880;2022-07-29T11:00:50;4.15;;;2.28;;
12059;SDS011;6091;51.432;6.880;2022-07-29T11:03:52;5.07;;;2.40;;
12059;SDS011;6091;51.432;6.880;2022-07-29T11:07:36;1.90;;;1.77;;
12059;SDS011;6091;51.432;6.880;2022-07-29T11:09:31;3.10;;;2.08;;
12059;SDS011;6091;51.432;6.880;2022-07-29T11:12:04;2.92;;;2.55;;
12059;SDS011;6091;51.432;6.880;2022-07-29T11:15:10;3.63;;;2.00;;
12059;SDS011;6091;51.432;6.880;2022-07-29T11:20:39;3.30;;;3.00;;
12059;SDS011;6091;51.432;6.880;2022-07-29T11:23:28;5.93;;;2.42;;
12059;SDS011;6091;51.432;6.880;2022-07-29T11:28:39;2.22;;;2.03;;
12059;SDS011;6091;51.432;6.880;2022-07-29T11:34:27;2.05;;;1.88;;
12059;SDS011;6091;51.432;6.880;2022-07-29T11:45:18;3.17;;;2.13;;
12059;SDS011;6091;51.432;6.880;2022-07-29T11:48:15;2.00;;;1.80;;
12059;SDS011;6091;51.432;6.880;2022-07-29T11:50:57;2.08;;;1.90;;
12059;SDS011;6091;51.432;6.880;2022-07-29T11:53:25;2.35;;;2.15;;
12059;SDS011;6091;51.432;6.880;2022-07-29T11:55:57;2.47;;;2.00;;
12059;SDS011;6091;51.432;6.880;2022-07-29T11:58:28;2.67;;;1.98;;
12059;SDS011;6091;51.432;6.880;2022-07-29T12:00:55;2.45;;;1.92;;
12059;SDS011;6091;51.432;6.880;2022-07-29T12:03:30;4.22;;;2.38;;
12059;SDS011;6091;51.432;6.880;2022-07-29T12:06:02;2.28;;;1.90;;
12059;SDS011;6091;51.432;6.880;2022-07-29T12:08:43;2.53;;;2.00;;
12059;SDS011;6091;51.432;6.880;2022-07-29T12:11:17;2.90;;;2.13;;
12059;SDS011;6091;51.432;6.880;2022-07-29T12:13:48;2.67;;;2.10;;
12059;SDS011;6091;51.432;6.880;2022-07-29T12:16:19;2.20;;;2.00;;
12059;SDS011;6091;51.432;6.880;2022-07-29T12:19:01;2.38;;;2.08;;
12059;SDS011;6091;51.432;6.880;2022-07-29T12:21:46;3.28;;;1.83;;
12059;SDS011;6091;51.432;6.880;2022-07-29T12:24:22;2.80;;;2.00;;
12059;SDS011;6091;51.432;6.880;2022-07-29T12:26:53;2.33;;;2.13;;
12059;SDS011;6091;51.432;6.880;2022-07-29T12:29:25;2.03;;;1.83;;
12059;SDS011;6091;51.432;6.880;2022-07-29T12:32:01;2.50;;;2.00;;
12059;SDS011;6091;51.432;6.880;2022-07-29T12:34:31;2.72;;;1.98;;
12059;SDS011;6091;51.432;6.880;2022-07-29T12:36:58;2.60;;;1.95;;
12059;SDS011;6091;51.432;6.880;2022-07-29T12:39:27;2.10;;;1.90;;
12059;SDS011;6091;51.432;6.880;2022-07-29T12:41:54;1.92;;;1.70;;
12059;SDS011;6091;51.432;6.880;2022-07-29T12:44:49;2.33;;;2.05;;
12059;SDS011;6091;51.432;6.880;2022-07-29T12:47:18;2.15;;;1.95;;
12059;SDS011;6091;51.432;6.880;2022-07-29T12:49:46;1.85;;;1.75;;
12059;SDS011;6091;51.432;6.880;2022-07-29T12:52:31;2.45;;;1.88;;
12059;SDS011;6091;51.432;6.880;2022-07-29T12:55:01;2.38;;;1.92;;
12059;SDS011;6091;51.432;6.880;2022-07-29T12:57:29;2.70;;;2.03;;
12059;SDS011;6091;51.432;6.880;2022-07-29T13:00:07;2.70;;;1.95;;
12059;SDS011;6091;51.432;6.880;2022-07-29T13:02:39;2.80;;;1.98;;
12059;SDS011;6091;51.432;6.880;2022-07-29T13:05:09;3.28;;;2.00;;
12059;SDS011;6091;51.432;6.880;2022-07-29T13:07:38;3.03;;;1.65;;
12059;SDS011;6091;51.432;6.880;2022-07-29T13:10:22;2.08;;;1.55;;
12059;SDS011;6091;51.432;6.880;2022-07-29T13:15:41;3.33;;;1.60;;
12059;SDS011;6091;51.432;6.880;2022-07-29T13:18:26;1.83;;;1.67;;
12059;SDS011;6091;51.432;6.880;2022-07-29T13:21:12;2.72;;;1.67;;
12059;SDS011;6091;51.432;6.880;2022-07-29T13:23:43;2.70;;;1.75;;
12059;SDS011;6091;51.432;6.880;2022-07-29T13:26:11;2.20;;;1.70;;
12059;SDS011;6091;51.432;6.880;2022-07-29T13:28:38;2.13;;;1.50;;
12059;SDS011;6091;51.432;6.880;2022-07-29T13:31:09;2.33;;;1.80;;
12059;SDS011;6091;51.432;6.880;2022-07-29T13:33:36;1.92;;;1.60;;
12059;SDS011;6091;51.432;6.880;2022-07-29T13:36:03;1.67;;;1.58;;
12059;SDS011;6091;51.432;6.880;2022-07-29T13:38:30;1.55;;;1.45;;
12059;SDS011;6091;51.432;6.880;2022-07-29T13:40:58;2.25;;;1.67;;
12059;SDS011;6091;51.432;6.880;2022-07-29T13:43:25;3.53;;;2.05;;
12059;SDS011;6091;51.432;6.880;2022-07-29T13:45:52;2.42;;;1.88;;
12059;SDS011;6091;51.432;6.880;2022-07-29T13:48:18;2.63;;;1.80;;
12059;SDS011;6091;51.432;6.880;2022-07-29T13:50:46;3.13;;;1.80;;
12059;SDS011;6091;51.432;6.880;2022-07-29T13:53:14;1.85;;;1.58;;
12059;SDS011;6091;51.432;6.880;2022-07-29T13:55:43;1.70;;;1.60;;
12059;SDS011;6091;51.432;6.880;2022-07-29T13:58:10;1.75;;;1.60;;
12059;SDS011;6091;51.432;6.880;2022-07-29T14:00:37;2.35;;;1.50;;
12059;SDS011;6091;51.432;6.880;2022-07-29T14:03:04;2.80;;;1.77;;
12059;SDS011;6091;51.432;6.880;2022-07-29T14:05:32;1.52;;;1.42;;
12059;SDS011;6091;51.432;6.880;2022-07-29T14:07:59;5.45;;;1.90;;
12059;SDS011;6091;51.432;6.880;2022-07-29T14:10:26;2.00;;;1.45;;
12059;SDS011;6091;51.432;6.880;2022-07-29T14:12:53;2.95;;;1.70;;
12059;SDS011;6091;51.432;6.880;2022-07-29T14:15:20;2.20;;;1.50;;
12059;SDS011;6091;51.432;6.880;2022-07-29T14:17:47;2.72;;;1.77;;
12059;SDS011;6091;51.432;6.880;2022-07-29T14:20:14;1.60;;;1.50;;
12059;SDS011;6091;51.432;6.880;2022-07-29T14:22:42;2.80;;;1.90;;
12059;SDS011;6091;51.432;6.880;2022-07-29T14:25:10;2.10;;;1.75;;
12059;SDS011;6091;51.432;6.880;2022-07-29T14:27:40;1.90;;;1.45;;
12059;SDS011;6091;51.432;6.880;2022-07-29T14:30:11;1.63;;;1.52;;
12059;SDS011;6091;51.432;6.880;2022-07-29T14:32:38;1.70;;;1.58;;
12059;SDS011;6091;51.432;6.880;2022-07-29T14:35:06;2.22;;;1.70;;
12059;SDS011;6091;51.432;6.880;2022-07-29T14:37:34;1.88;;;1.60;;
12059;SDS011;6091;51.432;6.880;2022-07-29T14:40:06;4.47;;;1.65;;
12059;SDS011;6091;51.432;6.880;2022-07-29T14:42:34;2.20;;;1.60;;
12059;SDS011;6091;51.432;6.880;2022-07-29T14:45:03;2.00;;;1.60;;
12059;SDS011;6091;51.432;6.880;2022-07-29T14:47:33;2.50;;;1.50;;
12059;SDS011;6091;51.432;6.880;2022-07-29T14:50:00;2.33;;;1.80;;
12059;SDS011;6091;51.432;6.880;2022-07-29T14:52:28;1.40;;;1.30;;
12059;SDS011;6091;51.432;6.880;2022-07-29T14:54:55;1.52;;;1.38;;
12059;SDS011;6091;51.432;6.880;2022-07-29T14:57:22;1.75;;;1.33;;
12059;SDS011;6091;51.432;6.880;2022-07-29T14:59:49;3.72;;;1.50;;
12059;SDS011;6091;51.432;6.880;2022-07-29T15:02:16;2.15;;;1.60;;
12059;SDS011;6091;51.432;6.880;2022-07-29T15:04:43;1.70;;;1.60;;
12059;SDS011;6091;51.432;6.880;2022-07-29T15:07:12;2.05;;;1.60;;
12059;SDS011;6091;51.432;6.880;2022-07-29T15:09:39;1.77;;;1.60;;
12059;SDS011;6091;51.432;6.880;2022-07-29T15:12:15;2.85;;;1.52;;
12059;SDS011;6091;51.432;6.880;2022-07-29T15:14:42;2.10;;;1.58;;
12059;SDS011;6091;51.432;6.880;2022-07-29T15:17:09;3.17;;;1.73;;
12059;SDS011;6091;51.432;6.880;2022-07-29T15:19:36;1.75;;;1.65;;
12059;SDS011;6091;51.432;6.880;2022-07-29T15:22:03;2.15;;;1.60;;
12059;SDS011;6091;51.432;6.880;2022-07-29T15:24:33;1.60;;;1.50;;
12059;SDS011;6091;51.432;6.880;2022-07-29T15:27:00;1.67;;;1.48;;
12059;SDS011;6091;51.432;6.880;2022-07-29T15:29:27;1.30;;;1.20;;
12059;SDS011;6091;51.432;6.880;2022-07-29T15:31:54;2.45;;;1.40;;
12059;SDS011;6091;51.432;6.880;2022-07-29T15:34:21;1.55;;;1.45;;
12059;SDS011;6091;51.432;6.880;2022-07-29T15:36:51;2.38;;;1.67;;
12059;SDS011;6091;51.432;6.880;2022-07-29T15:39:19;2.08;;;1.35;;
12059;SDS011;6091;51.432;6.880;2022-07-29T15:41:48;4.22;;;1.80;;
12059;SDS011;6091;51.432;6.880;2022-07-29T15:44:16;2.13;;;1.60;;
12059;SDS011;6091;51.432;6.880;2022-07-29T15:46:43;2.33;;;1.60;;
12059;SDS011;6091;51.432;6.880;2022-07-29T15:49:32;1.85;;;1.65;;
12059;SDS011;6091;51.432;6.880;2022-07-29T15:52:18;1.83;;;1.45;;
12059;SDS011;6091;51.432;6.880;2022-07-29T15:54:51;2.15;;;1.40;;
12059;SDS011;6091;51.432;6.880;2022-07-29T15:57:21;1.60;;;1.48;;
12059;SDS011;6091;51.432;6.880;2022-07-29T15:59:49;1.63;;;1.52;;
12059;SDS011;6091;51.432;6.880;2022-07-29T16:02:17;2.38;;;1.60;;
12059;SDS011;6091;51.432;6.880;2022-07-29T16:04:44;1.60;;;1.50;;
12059;SDS011;6091;51.432;6.880;2022-07-29T16:07:11;1.65;;;1.42;;
12059;SDS011;6091;51.432;6.880;2022-07-29T16:09:39;2.10;;;1.42;;
12059;SDS011;6091;51.432;6.880;2022-07-29T16:12:07;1.30;;;1.20;;
12059;SDS011;6091;51.432;6.880;2022-07-29T16:14:41;2.13;;;1.42;;
12059;SDS011;6091;51.432;6.880;2022-07-29T16:17:09;2.85;;;1.73;;
12059;SDS011;6091;51.432;6.880;2022-07-29T16:19:40;2.20;;;1.75;;